Time;durP1;ratioP1;P1;durP2;ratioP2;P2;SDS_P1;SDS_P2;PMS_P1;PMS_P2;Temp;Humidity;BMP_temperature;BMP_pressure;BME280_temperature;BME280_humidity;BME280_pressure;Samples;Min_cycle;Max_cycle;Signal;HPM_P1;HPM_P2
2023/05/02 00:00:13;;;;;;;43.17;25.63;;;11.90;99.90;;;;;;4959788;28;20043;-70
2023/05/02 00:02:39;;;;;;;48.40;26.38;;;11.90;99.90;;;;;;4975991;28;20023;-69
2023/05/02 00:05:05;;;;;;;44.03;24.17;;;12.00;99.90;;;;;;4974029;28;20034;-70
2023/05/02 00:07:32;;;;;;;44.72;25.77;;;12.00;99.90;;;;;;4973578;28;20035;-71
2023/05/02 00:09:58;;;;;;;47.55;26.80;;;12.00;99.90;;;;;;4975735;28;20035;-70
2023/05/02 00:12:23;;;;;;;45.72;26.85;;;12.00;99.90;;;;;;4977523;28;20050;-73
2023/05/02 00:14:49;;;;;;;44.72;25.90;;;12.00;99.90;;;;;;4955327;28;20034;-70
2023/05/02 00:17:19;;;;;;;49.65;26.73;;;12.00;99.90;;;;;;4958677;28;20023;-70
2023/05/02 00:19:45;;;;;;;50.10;27.17;;;11.90;99.90;;;;;;4956253;28;20031;-71
2023/05/02 00:22:10;;;;;;;55.67;28.05;;;11.90;99.90;;;;;;4956386;28;20018;-70
2023/05/02 00:24:36;;;;;;;46.58;27.48;;;11.90;99.90;;;;;;4973539;28;20034;-71
2023/05/02 00:27:02;;;;;;;49.55;27.13;;;11.90;99.90;;;;;;4977764;28;20023;-70
2023/05/02 00:29:28;;;;;;;44.53;26.92;;;11.80;99.90;;;;;;4974438;28;20092;-71
2023/05/02 00:31:53;;;;;;;48.33;26.77;;;11.80;99.90;;;;;;4956716;28;20027;-72
2023/05/02 00:34:19;;;;;;;49.65;27.10;;;11.80;99.90;;;;;;4972630;28;20112;-71
2023/05/02 00:36:45;;;;;;;48.58;26.60;;;11.70;99.90;;;;;;4957585;28;20026;-70
2023/05/02 00:39:10;;;;;;;49.42;26.55;;;11.80;99.90;;;;;;4974118;28;20705;-71
2023/05/02 00:41:36;;;;;;;50.85;27.70;;;11.70;99.90;;;;;;4980585;28;20034;-70
2023/05/02 00:44:01;;;;;;;53.08;26.88;;;11.60;99.90;;;;;;4972875;28;20028;-70
2023/05/02 00:46:27;;;;;;;48.40;26.42;;;11.60;99.90;;;;;;4974327;28;20027;-72
2023/05/02 00:48:53;;;;;;;46.25;26.02;;;11.60;99.90;;;;;;4957206;28;20027;-71
2023/05/02 00:51:18;;;;;;;49.58;26.35;;;11.60;99.90;;;;;;4955788;28;20026;-73
2023/05/02 00:53:44;;;;;;;49.30;25.35;;;11.60;99.90;;;;;;4973194;28;20763;-72
2023/05/02 00:56:10;;;;;;;45.15;24.88;;;11.60;99.90;;;;;;4975176;28;20014;-72
2023/05/02 00:58:38;;;;;;;48.05;24.30;;;11.50;99.90;;;;;;4971737;28;20074;-70
2023/05/02 01:01:26;;;;;;;43.53;23.02;;;11.60;99.90;;;;;;4957243;28;20173;-70
2023/05/02 01:04:16;;;;;;;42.33;23.30;;;11.50;99.90;;;;;;4956899;28;20030;-69
2023/05/02 01:06:51;;;;;;;50.50;23.50;;;11.50;99.90;;;;;;4958037;28;20138;-71
2023/05/02 01:09:23;;;;;;;42.20;21.13;;;11.50;99.90;;;;;;4975555;28;20065;-72
2023/05/02 01:12:09;;;;;;;42.90;20.15;;;11.40;99.90;;;;;;4973486;28;20055;-71
2023/05/02 01:14:41;;;;;;;35.60;18.80;;;11.30;99.90;;;;;;4971552;28;20042;-70
2023/05/02 01:17:11;;;;;;;31.52;16.40;;;11.30;99.90;;;;;;4973146;28;20384;-71
2023/05/02 01:20:07;;;;;;;32.88;16.60;;;11.20;99.90;;;;;;4957405;28;20051;-71
2023/05/02 01:22:36;;;;;;;35.67;15.70;;;11.20;99.90;;;;;;4975713;28;20034;-73
2023/05/02 01:25:26;;;;;;;30.40;15.15;;;11.20;99.90;;;;;;4974158;28;20038;-72
2023/05/02 01:28:27;;;;;;;32.15;15.15;;;11.20;99.90;;;;;;4977935;28;20027;-71
2023/05/02 01:30:55;;;;;;;30.95;14.48;;;11.20;99.90;;;;;;4977651;28;20015;-71
2023/05/02 01:33:24;;;;;;;29.10;13.95;;;11.10;99.90;;;;;;4978604;28;20094;-74
2023/05/02 01:35:51;;;;;;;29.08;14.00;;;11.10;99.90;;;;;;4961397;28;20037;-71
2023/05/02 01:38:18;;;;;;;27.95;12.65;;;11.00;99.90;;;;;;4975871;28;20186;-70
2023/05/02 01:40:45;;;;;;;28.83;12.85;;;11.00;99.90;;;;;;4977584;28;20054;-72
2023/05/02 01:43:11;;;;;;;25.13;12.30;;;10.90;99.90;;;;;;4975828;28;20030;-72
2023/05/02 01:45:38;;;;;;;21.70;11.15;;;10.90;99.90;;;;;;4981225;28;20042;-72
2023/05/02 01:48:06;;;;;;;21.80;9.73;;;10.90;99.90;;;;;;4977747;28;20151;-72
2023/05/02 01:50:33;;;;;;;13.50;7.05;;;10.80;99.90;;;;;;4959787;28;20051;-70
2023/05/02 01:53:02;;;;;;;11.25;6.50;;;10.80;99.90;;;;;;4958453;28;20031;-71
2023/05/02 01:55:28;;;;;;;15.30;6.80;;;10.70;99.90;;;;;;4959954;28;20030;-73
2023/05/02 01:57:56;;;;;;;11.35;6.65;;;10.50;99.90;;;;;;4977295;28;20047;-69
2023/05/02 02:00:24;;;;;;;12.20;6.53;;;10.50;99.90;;;;;;4977301;28;20035;-72
2023/05/02 02:02:51;;;;;;;11.70;6.70;;;10.40;99.90;;;;;;4964647;28;20081;-70
2023/05/02 02:05:18;;;;;;;9.48;5.85;;;10.40;99.90;;;;;;4959549;28;20030;-73
2023/05/02 02:07:45;;;;;;;8.05;5.15;;;10.40;99.90;;;;;;4958705;28;20015;-69
2023/05/02 02:10:11;;;;;;;7.15;4.80;;;10.30;99.90;;;;;;4959404;28;20027;-70
2023/05/02 02:12:52;;;;;;;7.18;4.13;;;10.20;99.90;;;;;;4977142;28;20118;-69
2023/05/02 02:15:26;;;;;;;12.30;3.90;;;10.10;99.90;;;;;;4980093;28;20055;-73
2023/05/02 02:17:59;;;;;;;10.75;3.72;;;10.10;99.90;;;;;;4978442;28;20035;-70
2023/05/02 02:20:27;;;;;;;8.18;3.40;;;9.90;99.90;;;;;;4975734;28;20070;-69
2023/05/02 02:22:54;;;;;;;8.50;3.35;;;9.90;99.90;;;;;;4958953;28;20027;-70
2023/05/02 02:25:19;;;;;;;8.82;3.50;;;9.80;99.90;;;;;;4976798;28;20077;-68
2023/05/02 02:27:46;;;;;;;7.35;3.30;;;9.80;99.90;;;;;;4975080;28;20371;-69
2023/05/02 02:30:12;;;;;;;7.10;3.67;;;9.70;99.90;;;;;;4980784;28;20062;-69
2023/05/02 02:32:37;;;;;;;9.40;3.05;;;9.70;99.90;;;;;;4977208;28;20070;-69
2023/05/02 02:35:04;;;;;;;9.63;3.58;;;9.60;99.90;;;;;;4976869;28;20030;-69
2023/05/02 02:38:08;;;;;;;10.38;3.50;;;9.50;99.90;;;;;;4975867;28;20027;-70
2023/05/02 02:40:43;;;;;;;10.13;3.53;;;9.60;99.90;;;;;;4955896;28;20110;-70
2023/05/02 02:43:09;;;;;;;13.15;4.15;;;9.60;99.90;;;;;;4975959;28;20053;-69
2023/05/02 02:45:42;;;;;;;15.00;4.50;;;9.50;99.90;;;;;;4979843;28;20031;-71
2023/05/02 02:48:26;;;;;;;22.70;5.13;;;9.40;99.90;;;;;;4975565;28;20034;-69
2023/05/02 02:51:18;;;;;;;24.50;6.00;;;9.40;99.90;;;;;;4976681;28;20023;-70
2023/05/02 02:54:02;;;;;;;25.55;5.07;;;9.30;99.90;;;;;;4976760;28;20065;-69
2023/05/02 02:56:36;;;;;;;;;;;9.30;99.90;;;;;;4979197;28;20035;-69
2023/05/02 02:59:13;;;;;;;29.25;5.70;;;9.20;99.90;;;;;;4976706;28;19918;-71
2023/05/02 03:01:42;;;;;;;24.40;6.55;;;9.30;99.90;;;;;;4973924;28;20051;-70
2023/05/02 03:04:09;;;;;;;33.92;6.20;;;9.20;99.90;;;;;;4975810;28;20416;-69
2023/05/02 03:06:35;;;;;;;27.27;6.70;;;9.20;99.90;;;;;;4976724;28;20027;-69
2023/05/02 03:09:02;;;;;;;30.45;6.78;;;9.20;99.90;;;;;;4978861;28;20027;-69
2023/05/02 03:11:28;;;;;;;29.02;6.78;;;9.20;99.90;;;;;;4975414;28;20183;-70
2023/05/02 03:13:54;;;;;;;28.13;6.25;;;9.20;99.90;;;;;;4958127;28;20069;-68
2023/05/02 03:16:37;;;;;;;29.23;6.20;;;9.20;99.90;;;;;;4973608;28;20028;-69
2023/05/02 03:19:03;;;;;;;30.35;5.68;;;9.10;99.90;;;;;;4974867;28;20082;-69
2023/05/02 03:21:32;;;;;;;30.52;6.50;;;9.10;99.90;;;;;;4979236;28;20027;-69
2023/05/02 03:23:59;;;;;;;29.20;6.38;;;9.00;99.90;;;;;;4959011;28;20090;-71
2023/05/02 03:26:25;;;;;;;34.40;6.03;;;9.00;99.90;;;;;;4974670;28;20038;-70
2023/05/02 03:28:51;;;;;;;32.10;6.03;;;9.00;99.90;;;;;;4975264;28;20042;-68
2023/05/02 03:31:17;;;;;;;30.90;6.53;;;8.90;99.90;;;;;;4958955;28;20022;-71
2023/05/02 03:33:42;;;;;;;35.25;6.40;;;8.90;99.90;;;;;;4958530;28;20813;-70
2023/05/02 03:36:08;;;;;;;36.30;6.90;;;8.80;99.90;;;;;;4978468;28;20019;-71
2023/05/02 03:38:34;;;;;;;33.30;6.60;;;8.80;99.90;;;;;;4958460;28;20508;-69
2023/05/02 03:40:59;;;;;;;30.10;7.55;;;8.80;99.90;;;;;;4974098;28;20027;-71
2023/05/02 03:43:25;;;;;;;25.60;5.95;;;8.80;99.90;;;;;;4976138;28;20060;-71
2023/05/02 03:45:51;;;;;;;42.42;5.97;;;8.70;99.90;;;;;;4978666;28;20039;-69
2023/05/02 03:48:16;;;;;;;34.28;6.95;;;8.60;99.90;;;;;;4979012;28;20031;-71
2023/05/02 03:50:42;;;;;;;30.50;6.50;;;8.60;99.90;;;;;;4969947;28;20039;-69
2023/05/02 03:53:08;;;;;;;33.35;6.45;;;8.60;99.90;;;;;;4985972;28;20030;-70
2023/05/02 03:55:41;;;;;;;25.30;6.63;;;8.60;99.90;;;;;;4985333;28;20038;-71
2023/05/02 03:58:07;;;;;;;31.15;5.75;;;8.60;99.90;;;;;;4982866;28;20045;-70
2023/05/02 04:00:33;;;;;;;30.23;6.18;;;8.70;99.90;;;;;;4964097;28;20035;-70
2023/05/02 04:03:02;;;;;;;28.98;5.32;;;8.70;99.90;;;;;;4967767;28;20033;-71
2023/05/02 04:05:28;;;;;;;28.02;6.10;;;8.70;99.90;;;;;;4984773;28;20058;-71
2023/05/02 04:07:54;;;;;;;31.25;6.45;;;8.70;99.90;;;;;;4985505;28;20039;-71
2023/05/02 04:10:20;;;;;;;32.10;7.30;;;8.70;99.90;;;;;;4985366;28;20035;-70
2023/05/02 04:12:45;;;;;;;26.10;5.70;;;8.70;99.90;;;;;;4984699;28;20086;-70
2023/05/02 04:15:11;;;;;;;30.30;6.28;;;8.70;99.90;;;;;;4984409;28;20566;-71
2023/05/02 04:17:37;;;;;;;25.85;6.50;;;8.80;99.90;;;;;;4967214;28;20090;-69
2023/05/02 04:20:04;;;;;;;29.75;6.03;;;8.70;99.90;;;;;;4966526;28;20043;-70
2023/05/02 04:22:30;;;;;;;37.03;7.15;;;8.70;99.90;;;;;;4984590;28;20050;-68
2023/05/02 04:24:56;;;;;;;36.75;6.45;;;8.70;99.90;;;;;;4985482;28;20026;-69
2023/05/02 04:27:22;;;;;;;26.83;5.30;;;8.70;99.90;;;;;;4985311;28;20035;-68
2023/05/02 04:29:48;;;;;;;28.52;5.88;;;8.70;99.90;;;;;;4985236;28;20026;-68
2023/05/02 04:32:14;;;;;;;34.17;5.55;;;8.70;99.90;;;;;;4985255;28;20484;-69
2023/05/02 04:34:40;;;;;;;33.50;6.10;;;8.70;99.90;;;;;;4984874;28;20034;-69
2023/05/02 04:37:06;;;;;;;35.63;5.85;;;8.60;99.90;;;;;;4985021;28;20038;-68
2023/05/02 04:39:32;;;;;;;26.27;5.57;;;8.60;99.90;;;;;;4990828;28;20053;-67
2023/05/02 04:41:58;;;;;;;25.92;4.63;;;8.60;99.90;;;;;;4965509;28;20046;-70
2023/05/02 04:44:24;;;;;;;23.63;5.85;;;8.50;99.90;;;;;;4965293;28;20066;-68
2023/05/02 04:46:49;;;;;;;25.75;6.07;;;8.50;99.90;;;;;;4973509;28;20122;-69
2023/05/02 04:49:15;;;;;;;32.30;5.82;;;8.40;99.90;;;;;;4984088;28;20038;-70
2023/05/02 04:51:41;;;;;;;25.52;5.57;;;8.40;99.90;;;;;;4983891;28;20027;-68
2023/05/02 04:54:06;;;;;;;25.55;6.22;;;8.40;99.90;;;;;;4984603;28;20027;-69
2023/05/02 04:56:32;;;;;;;29.02;5.18;;;8.40;99.90;;;;;;4981800;28;20102;-70
2023/05/02 04:58:57;;;;;;;28.40;5.93;;;8.40;99.90;;;;;;4979592;28;20047;-68
2023/05/02 05:01:23;;;;;;;33.20;6.28;;;8.30;99.90;;;;;;4977092;28;20027;-69
2023/05/02 05:03:49;;;;;;;29.90;5.45;;;8.30;99.90;;;;;;4979526;28;20035;-68
2023/05/02 05:06:15;;;;;;;24.33;5.25;;;8.40;99.90;;;;;;4969394;29;20043;-68
2023/05/02 05:08:41;;;;;;;25.73;5.50;;;8.30;99.90;;;;;;4951755;29;20066;-69
2023/05/02 05:11:06;;;;;;;26.38;5.90;;;8.40;99.90;;;;;;4973851;28;20035;-67
2023/05/02 05:13:32;;;;;;;25.95;5.63;;;8.40;99.90;;;;;;4983303;28;20023;-70
2023/05/02 05:15:57;;;;;;;26.63;6.07;;;8.40;99.90;;;;;;4979310;28;20479;-68
2023/05/02 05:18:23;;;;;;;22.20;5.22;;;8.40;99.90;;;;;;4962890;28;20062;-70
2023/05/02 05:20:49;;;;;;;26.17;6.05;;;8.40;99.90;;;;;;4965246;28;20042;-69
2023/05/02 05:23:14;;;;;;;27.92;5.40;;;8.50;99.90;;;;;;4982059;28;20455;-69
2023/05/02 05:25:40;;;;;;;26.60;5.63;;;8.50;99.90;;;;;;4984111;28;20027;-69
2023/05/02 05:28:05;;;;;;;29.48;6.18;;;8.50;99.90;;;;;;4987290;28;20033;-68
2023/05/02 05:30:31;;;;;;;19.35;4.68;;;8.50;99.90;;;;;;4987417;28;20038;-69
2023/05/02 05:32:57;;;;;;;21.50;4.28;;;8.50;99.90;;;;;;4988121;28;20035;-71
2023/05/02 05:35:24;;;;;;;21.65;4.18;;;8.50;99.90;;;;;;4986245;28;20031;-69
2023/05/02 05:37:50;;;;;;;22.63;4.00;;;8.40;99.90;;;;;;4987976;28;20404;-68
2023/05/02 05:40:20;;;;;;;20.48;4.25;;;8.40;99.90;;;;;;4988663;28;20045;-70
2023/05/02 05:42:45;;;;;;;20.20;4.35;;;8.30;99.90;;;;;;4986066;28;20508;-68
2023/05/02 05:45:11;;;;;;;20.17;4.05;;;8.30;99.90;;;;;;4987819;28;20027;-69
2023/05/02 05:47:36;;;;;;;17.42;3.88;;;8.30;99.90;;;;;;4985781;28;20023;-69
2023/05/02 05:50:03;;;;;;;20.92;4.38;;;8.30;99.90;;;;;;4988030;28;20026;-70
2023/05/02 05:52:29;;;;;;;18.85;4.13;;;8.30;99.90;;;;;;4969964;28;20077;-69
2023/05/02 05:54:55;;;;;;;20.02;4.32;;;8.30;99.90;;;;;;4986462;28;20022;-69
2023/05/02 05:57:21;;;;;;;19.42;3.78;;;8.30;99.90;;;;;;4969984;28;20035;-68
2023/05/02 05:59:47;;;;;;;20.52;4.00;;;8.30;99.90;;;;;;4981449;28;20089;-69
2023/05/02 06:02:14;;;;;;;16.70;3.67;;;8.40;99.90;;;;;;4981576;28;20030;-68
2023/05/02 06:04:40;;;;;;;16.67;3.90;;;8.40;99.90;;;;;;4985602;28;20111;-68
2023/05/02 06:07:05;;;;;;;17.00;4.05;;;8.40;99.90;;;;;;4968289;28;20062;-68
2023/05/02 06:09:31;;;;;;;20.30;3.92;;;8.50;99.90;;;;;;4986655;28;20026;-70
2023/05/02 06:11:56;;;;;;;14.43;3.50;;;8.50;99.90;;;;;;4985733;28;20081;-70
2023/05/02 06:14:23;;;;;;;14.48;4.00;;;8.40;99.90;;;;;;4969088;28;20031;-72
2023/05/02 06:16:48;;;;;;;16.70;3.92;;;8.40;99.90;;;;;;4987152;28;20901;-68
2023/05/02 06:19:14;;;;;;;27.98;3.95;;;8.40;99.90;;;;;;4987122;28;20046;-69
2023/05/02 06:21:39;;;;;;;17.38;3.78;;;8.40;99.90;;;;;;4986476;28;20060;-69
2023/05/02 06:24:05;;;;;;;21.20;3.90;;;8.40;99.90;;;;;;4986235;28;20451;-68
2023/05/02 06:26:31;;;;;;;20.77;3.63;;;8.40;99.90;;;;;;4987041;28;20073;-69
2023/05/02 06:28:57;;;;;;;17.85;4.15;;;8.40;99.90;;;;;;4987663;28;20046;-69
2023/05/02 06:31:23;;;;;;;20.60;4.32;;;8.40;99.90;;;;;;4987641;28;20035;-69
2023/05/02 06:33:48;;;;;;;17.80;3.13;;;8.40;99.90;;;;;;4987367;28;20031;-70
2023/05/02 06:36:14;;;;;;;20.55;3.80;;;8.30;99.90;;;;;;4987434;28;20041;-68
2023/05/02 06:38:39;;;;;;;12.20;3.13;;;8.30;99.90;;;;;;4986935;28;20043;-70
2023/05/02 06:41:05;;;;;;;20.17;4.20;;;8.40;99.90;;;;;;4986776;28;20069;-68
2023/05/02 06:43:31;;;;;;;12.10;3.83;;;8.40;99.90;;;;;;4986942;28;20411;-69
2023/05/02 06:45:57;;;;;;;19.27;3.70;;;8.50;99.90;;;;;;4986923;28;20030;-70
2023/05/02 06:48:23;;;;;;;15.93;3.33;;;8.50;99.90;;;;;;4986564;28;20026;-70
2023/05/02 06:50:52;;;;;;;20.27;4.13;;;8.50;99.90;;;;;;4987362;28;20031;-69
2023/05/02 06:53:17;;;;;;;19.35;4.45;;;8.50;99.90;;;;;;4983072;28;20023;-69
2023/05/02 06:55:44;;;;;;;16.90;4.13;;;8.50;99.90;;;;;;4979429;28;20031;-68
2023/05/02 06:58:10;;;;;;;22.33;4.68;;;8.50;99.90;;;;;;4969602;28;20518;-68
2023/05/02 07:00:36;;;;;;;20.80;4.03;;;8.40;99.90;;;;;;4986431;28;20042;-70
2023/05/02 07:03:01;;;;;;;18.38;4.28;;;8.40;99.90;;;;;;4986682;28;20491;-69
2023/05/02 07:05:28;;;;;;;18.13;4.55;;;8.40;99.90;;;;;;4987126;28;20026;-68
2023/05/02 07:07:53;;;;;;;15.63;4.50;;;8.40;99.90;;;;;;4971028;28;20497;-71
2023/05/02 07:10:19;;;;;;;16.60;4.65;;;8.50;99.90;;;;;;4969060;28;20035;-69
2023/05/02 07:12:44;;;;;;;17.10;5.30;;;8.50;99.90;;;;;;4985624;28;20055;-70
2023/05/02 07:15:12;;;;;;;22.23;4.00;;;8.50;99.90;;;;;;4968198;28;20030;-71
2023/05/02 07:17:38;;;;;;;16.73;4.03;;;8.60;99.90;;;;;;4984493;28;20299;-69
2023/05/02 07:20:05;;;;;;;27.52;4.78;;;8.70;99.90;;;;;;4984074;28;20039;-69
2023/05/02 07:22:31;;;;;;;15.73;4.38;;;8.70;99.90;;;;;;4966939;28;20031;-71
2023/05/02 07:24:58;;;;;;;19.23;4.50;;;8.80;99.90;;;;;;4985406;28;20035;-70
2023/05/02 07:27:23;;;;;;;23.02;4.93;;;8.80;99.90;;;;;;4986406;28;20179;-70
2023/05/02 07:29:49;;;;;;;22.73;4.28;;;8.70;99.90;;;;;;4979043;28;20031;-69
2023/05/02 07:32:14;;;;;;;17.55;3.85;;;8.80;99.90;;;;;;4984772;28;20038;-69
2023/05/02 07:34:40;;;;;;;14.05;3.40;;;8.90;99.90;;;;;;4967010;28;20027;-69
2023/05/02 07:37:06;;;;;;;26.42;3.85;;;9.00;99.90;;;;;;4984001;28;20035;-70
2023/05/02 07:39:32;;;;;;;14.82;3.50;;;9.10;99.90;;;;;;4965238;28;20046;-69
2023/05/02 07:41:58;;;;;;;15.55;3.58;;;9.20;99.90;;;;;;4983393;28;20026;-74
2023/05/02 07:44:24;;;;;;;16.60;3.35;;;9.20;99.90;;;;;;4986070;28;20076;-69
2023/05/02 07:46:50;;;;;;;16.17;3.55;;;9.20;99.90;;;;;;4968533;28;20111;-68
2023/05/02 07:49:16;;;;;;;15.55;3.60;;;9.20;99.90;;;;;;4961065;28;20034;-71
2023/05/02 07:51:43;;;;;;;16.10;3.20;;;9.10;99.90;;;;;;4981549;28;20047;-68
2023/05/02 07:54:19;;;;;;;21.40;3.78;;;9.10;99.90;;;;;;4980015;28;20030;-69
2023/05/02 07:56:45;;;;;;;19.00;3.75;;;9.20;99.90;;;;;;4980126;28;20027;-69
2023/05/02 07:59:10;;;;;;;14.35;4.00;;;9.20;99.90;;;;;;4985269;28;20045;-69
2023/05/02 08:01:37;;;;;;;14.05;3.53;;;9.20;99.90;;;;;;4981757;28;20414;-68
2023/05/02 08:04:03;;;;;;;13.77;3.28;;;9.30;99.90;;;;;;4981033;28;20035;-71
2023/05/02 08:06:32;;;;;;;11.43;3.50;;;9.30;99.90;;;;;;4960116;28;20031;-70
2023/05/02 08:08:57;;;;;;;17.92;3.58;;;9.30;99.90;;;;;;4985119;28;20027;-70
2023/05/02 08:11:24;;;;;;;19.15;3.95;;;9.40;99.90;;;;;;4962439;28;20047;-70
2023/05/02 08:13:50;;;;;;;16.15;3.53;;;9.40;99.90;;;;;;4979723;28;20030;-69
2023/05/02 08:16:16;;;;;;;17.30;3.42;;;9.40;99.90;;;;;;4984857;28;20026;-67
2023/05/02 08:18:41;;;;;;;14.63;3.40;;;9.40;99.90;;;;;;4984857;28;20042;-69
2023/05/02 08:21:07;;;;;;;13.75;2.80;;;9.50;99.90;;;;;;4984946;28;20031;-68
2023/05/02 08:23:33;;;;;;;11.85;3.03;;;9.50;99.90;;;;;;4984261;28;20038;-68
2023/05/02 08:25:58;;;;;;;9.48;2.97;;;9.40;99.90;;;;;;4981904;28;20027;-69
2023/05/02 08:28:24;;;;;;;9.93;2.75;;;9.40;99.90;;;;;;4949010;29;20050;-70
2023/05/02 08:30:50;;;;;;;17.23;2.78;;;9.50;99.90;;;;;;4977370;28;20571;-68
2023/05/02 08:33:15;;;;;;;8.57;2.80;;;9.80;99.90;;;;;;4985545;28;20031;-69
2023/05/02 08:35:41;;;;;;;11.20;2.55;;;10.10;99.90;;;;;;4983762;28;20035;-70
2023/05/02 08:38:07;;;;;;;13.18;2.65;;;10.30;99.90;;;;;;4984786;28;20061;-70
2023/05/02 08:40:37;;;;;;;9.52;2.45;;;10.30;99.90;;;;;;4984856;28;20046;-69
2023/05/02 08:43:04;;;;;;;5.13;1.88;;;10.20;99.90;;;;;;4985078;28;20054;-70
2023/05/02 08:45:37;;;;;;;6.38;1.75;;;10.20;99.90;;;;;;4976699;28;20038;-70
2023/05/02 08:48:09;;;;;;;8.57;2.20;;;10.20;99.90;;;;;;4985314;28;20086;-69
2023/05/02 08:50:47;;;;;;;6.28;2.30;;;10.10;99.90;;;;;;4978050;28;20031;-71
2023/05/02 08:53:13;;;;;;;4.68;1.52;;;10.20;99.90;;;;;;4965475;28;20480;-70
2023/05/02 08:55:40;;;;;;;10.32;2.10;;;10.30;99.90;;;;;;4976794;28;20047;-70
2023/05/02 08:58:10;;;;;;;8.50;2.20;;;10.50;99.90;;;;;;4975421;28;20031;-68
2023/05/02 09:00:40;;;;;;;8.05;1.75;;;10.80;99.90;;;;;;4960659;28;20062;-69
2023/05/02 09:03:34;;;;;;;6.00;1.52;;;11.00;99.90;;;;;;4957144;28;20026;-68
2023/05/02 09:06:14;;;;;;;5.78;2.00;;;11.10;99.90;;;;;;4979240;28;20420;-69
2023/05/02 09:08:42;;;;;;;4.20;1.45;;;11.00;99.90;;;;;;4982839;28;20436;-69
2023/05/02 09:11:09;;;;;;;7.30;1.70;;;10.80;99.90;;;;;;4967306;28;20090;-70
2023/05/02 09:13:39;;;;;;;7.88;1.73;;;10.90;99.90;;;;;;4983076;28;20042;-71
2023/05/02 09:16:08;;;;;;;5.80;1.40;;;10.90;99.90;;;;;;4977515;28;20039;-68
2023/05/02 09:18:38;;;;;;;8.27;2.10;;;10.90;99.90;;;;;;4980767;28;20031;-68
2023/05/02 09:21:08;;;;;;;4.55;1.80;;;10.90;99.90;;;;;;4982830;28;20034;-69
2023/05/02 09:23:38;;;;;;;7.00;1.90;;;11.10;99.90;;;;;;4984666;28;20082;-68
2023/05/02 09:26:33;;;;;;;7.57;1.42;;;11.00;99.90;;;;;;4983282;28;20039;-69
2023/05/02 09:29:00;;;;;;;5.20;1.55;;;10.80;99.90;;;;;;4971768;28;20086;-69
2023/05/02 09:31:40;;;;;;;24.20;1.90;;;10.70;99.90;;;;;;4984708;28;20114;-70
2023/05/02 09:34:16;;;;;;;5.75;1.48;;;10.80;99.90;;;;;;4984529;28;20449;-70
2023/05/02 09:36:52;;;;;;;8.40;1.90;;;11.20;99.90;;;;;;4979096;28;20027;-68
2023/05/02 09:39:20;;;;;;;9.25;1.88;;;11.40;99.90;;;;;;4974288;28;20100;-68
2023/05/02 09:41:47;;;;;;;8.32;2.75;;;11.20;99.90;;;;;;4976796;28;20023;-69
2023/05/02 09:44:18;;;;;;;4.95;1.73;;;11.00;99.90;;;;;;4974770;28;20113;-70
2023/05/02 09:46:49;;;;;;;9.93;2.00;;;10.80;99.90;;;;;;4985465;28;20062;-71
2023/05/02 09:49:18;;;;;;;9.02;2.30;;;10.70;99.90;;;;;;4985824;28;20098;-70
2023/05/02 09:51:47;;;;;;;9.88;1.90;;;10.70;99.90;;;;;;4988205;28;20027;-68
2023/05/02 09:54:13;;;;;;;8.38;1.75;;;10.90;99.90;;;;;;4987853;28;20038;-71
2023/05/02 09:56:55;;;;;;;7.57;2.10;;;11.00;99.90;;;;;;4987774;28;20106;-69
2023/05/02 09:59:21;;;;;;;7.13;1.70;;;11.10;99.90;;;;;;4988173;28;20053;-70
2023/05/02 10:01:58;;;;;;;9.75;1.88;;;11.10;99.90;;;;;;4985409;28;20027;-70
2023/05/02 10:04:24;;;;;;;14.35;2.00;;;11.10;99.90;;;;;;4978663;28;20102;-70
2023/05/02 10:06:51;;;;;;;12.35;1.92;;;11.00;99.90;;;;;;4969430;28;20031;-68
2023/05/02 10:09:20;;;;;;;7.88;1.85;;;11.20;99.90;;;;;;4986670;28;20125;-70
2023/05/02 10:11:46;;;;;;;7.45;2.25;;;11.60;99.90;;;;;;4972112;28;20043;-69
2023/05/02 10:14:15;;;;;;;7.63;1.75;;;11.80;99.90;;;;;;4981367;28;20046;-70
2023/05/02 10:16:51;;;;;;;7.15;2.30;;;11.90;99.90;;;;;;4980703;28;20031;-70
2023/05/02 10:19:22;;;;;;;8.77;1.77;;;11.70;99.90;;;;;;4983133;28;20043;-69
2023/05/02 10:21:49;;;;;;;7.80;1.80;;;11.50;99.90;;;;;;4987145;28;20042;-70
2023/05/02 10:24:15;;;;;;;6.00;1.40;;;11.20;99.90;;;;;;4983357;28;20058;-69
2023/05/02 10:26:42;;;;;;;7.20;1.50;;;11.10;99.90;;;;;;4978483;28;20068;-68
2023/05/02 10:29:08;;;;;;;8.68;1.70;;;11.20;99.90;;;;;;4968006;29;20038;-69
2023/05/02 10:31:34;;;;;;;5.22;1.35;;;11.30;99.90;;;;;;4983532;28;20026;-69
2023/05/02 10:34:01;;;;;;;5.90;1.50;;;11.40;99.90;;;;;;4986650;28;20027;-68
2023/05/02 10:36:28;;;;;;;5.10;1.60;;;11.50;99.90;;;;;;4984246;28;20035;-69
2023/05/02 10:38:54;;;;;;;6.50;1.75;;;11.50;99.90;;;;;;4983977;28;20038;-72
2023/05/02 10:41:25;;;;;;;4.93;1.67;;;11.50;99.90;;;;;;4982500;28;20038;-68
2023/05/02 10:43:51;;;;;;;4.15;1.52;;;11.40;99.90;;;;;;4980475;28;20069;-68
2023/05/02 10:46:40;;;;;;;7.22;1.60;;;11.20;99.90;;;;;;4980571;28;20023;-69
2023/05/02 10:49:12;;;;;;;5.18;1.52;;;11.10;99.90;;;;;;4981549;28;20032;-68
2023/05/02 10:51:40;;;;;;;9.38;1.98;;;11.00;99.90;;;;;;4970750;28;20095;-69
2023/05/02 10:54:33;;;;;;;5.15;1.75;;;10.90;99.90;;;;;;4986216;28;20038;-68
2023/05/02 10:57:02;;;;;;;8.30;2.08;;;11.40;99.90;;;;;;4983433;28;20046;-70
2023/05/02 10:59:43;;;;;;;7.75;1.67;;;11.60;99.90;;;;;;4980399;28;20051;-68
2023/05/02 11:02:24;;;;;;;5.75;1.52;;;11.50;99.90;;;;;;4985811;28;20045;-68
2023/05/02 11:05:08;;;;;;;7.40;1.60;;;11.20;99.90;;;;;;4982936;28;20034;-68
2023/05/02 11:07:35;;;;;;;6.82;1.70;;;11.20;99.90;;;;;;4986841;28;20035;-68
2023/05/02 11:10:27;;;;;;;6.63;1.73;;;11.10;99.90;;;;;;4986803;28;20086;-70
2023/05/02 11:12:55;;;;;;;5.47;1.60;;;10.90;99.90;;;;;;4983124;28;20411;-68
2023/05/02 11:15:26;;;;;;;4.97;1.60;;;11.00;99.90;;;;;;4986491;28;20103;-66
2023/05/02 11:18:06;;;;;;;6.32;1.33;;;11.00;99.90;;;;;;4985922;28;20037;-69
2023/05/02 11:20:33;;;;;;;10.10;3.10;;;11.10;99.90;;;;;;4985083;28;20045;-67
2023/05/02 11:23:20;;;;;;;8.85;1.88;;;11.30;99.90;;;;;;4986803;28;20023;-68
2023/05/02 11:25:46;;;;;;;5.50;1.83;;;11.50;99.90;;;;;;4978287;28;20095;-70
2023/05/02 11:28:33;;;;;;;5.88;1.80;;;11.80;99.90;;;;;;4986178;28;20031;-69
2023/05/02 11:30:59;;;;;;;8.55;1.65;;;12.10;99.90;;;;;;4986942;28;20465;-68
2023/05/02 11:33:26;;;;;;;4.32;1.65;;;12.30;99.90;;;;;;4982794;28;20038;-69
2023/05/02 11:35:52;;;;;;;5.63;1.50;;;12.30;99.90;;;;;;4986930;28;20038;-70
2023/05/02 11:38:19;;;;;;;5.82;1.50;;;12.30;99.90;;;;;;4986189;28;20070;-67
2023/05/02 11:40:53;;;;;;;6.47;1.50;;;12.30;99.90;;;;;;4982661;28;20073;-68
2023/05/02 11:43:20;;;;;;;;;;;12.40;99.90;;;;;;4986319;28;20053;-67
2023/05/02 11:45:46;;;;;;;7.32;2.13;;;12.40;99.90;;;;;;4971833;28;19941;-70
2023/05/02 11:48:13;;;;;;;8.07;2.42;;;12.30;99.90;;;;;;4986044;28;20058;-68
2023/05/02 11:50:54;;;;;;;9.98;2.35;;;12.00;99.90;;;;;;4979993;28;20062;-68
2023/05/02 11:53:24;;;;;;;10.40;3.13;;;11.60;99.90;;;;;;4985834;28;20023;-68
2023/05/02 11:55:58;;;;;;;13.55;3.00;;;11.40;99.90;;;;;;4984250;28;20422;-68
2023/05/02 11:58:31;;;;;;;;;;;11.30;99.90;;;;;;4986395;28;20031;-69
2023/05/02 12:00:57;;;;;;;12.90;2.80;;;11.20;99.90;;;;;;4985458;28;19910;-67
2023/05/02 12:03:31;;;;;;;15.65;2.97;;;11.10;99.90;;;;;;4980207;28;20488;-68
2023/05/02 12:06:08;;;;;;;15.35;2.10;;;11.20;99.90;;;;;;4966394;29;20047;-68
2023/05/02 12:08:34;;;;;;;7.25;1.90;;;11.10;99.90;;;;;;4978535;28;20105;-68
2023/05/02 12:10:59;;;;;;;6.43;1.42;;;11.10;99.90;;;;;;4985698;28;20475;-67
2023/05/02 12:13:26;;;;;;;7.28;1.58;;;11.40;99.90;;;;;;4985560;28;20081;-70
2023/05/02 12:15:53;;;;;;;6.05;1.50;;;11.70;99.90;;;;;;4985537;28;20027;-67
2023/05/02 12:18:22;;;;;;;11.65;2.10;;;12.30;99.90;;;;;;4983261;28;20054;-69
2023/05/02 12:20:50;;;;;;;5.70;1.70;;;12.80;99.90;;;;;;4981738;28;20035;-69
2023/05/02 12:23:17;;;;;;;7.63;1.77;;;12.90;99.90;;;;;;4984144;28;20030;-70
2023/05/02 12:25:42;;;;;;;5.82;1.48;;;12.80;99.90;;;;;;4973167;28;20030;-68
2023/05/02 12:28:09;;;;;;;3.15;1.35;;;12.50;99.90;;;;;;4975237;28;20030;-69
2023/05/02 12:30:40;;;;;;;7.80;1.35;;;12.40;99.90;;;;;;4958560;28;20054;-67
2023/05/02 12:33:06;;;;;;;6.13;1.40;;;12.20;99.90;;;;;;4970986;28;20429;-69
2023/05/02 12:35:33;;;;;;;8.05;1.35;;;12.00;99.90;;;;;;4973102;28;20038;-70
2023/05/02 12:38:11;;;;;;;5.53;1.50;;;11.90;99.90;;;;;;4976651;28;20027;-71
2023/05/02 12:40:37;;;;;;;7.00;1.60;;;11.80;99.90;;;;;;4948936;29;20039;-69
2023/05/02 12:43:05;;;;;;;9.20;1.45;;;11.80;99.90;;;;;;4948964;29;20069;-68
2023/05/02 12:45:34;;;;;;;7.43;1.30;;;11.60;99.90;;;;;;4970010;28;20110;-69
2023/05/02 12:48:21;;;;;;;6.93;1.45;;;11.50;99.90;;;;;;4954044;28;20029;-69
2023/05/02 12:50:47;;;;;;;10.30;1.58;;;11.50;99.90;;;;;;4968040;28;20031;-67
2023/05/02 12:53:12;;;;;;;9.73;1.38;;;11.60;99.90;;;;;;4966022;28;20670;-68